sensor_id;sensor_type;location;lat;lon;timestamp;P1;durP1;ratioP1;P2;durP2;ratioP2
22963;SDS011;11648;49.306;6.934;2022-07-10T00:01:49;2.67;;;0.83;;
22963;SDS011;11648;49.306;6.934;2022-07-10T00:04:16;2.93;;;1.00;;
22963;SDS011;11648;49.306;6.934;2022-07-10T00:06:42;2.00;;;1.00;;
22963;SDS011;11648;49.306;6.934;2022-07-10T00:09:13;1.90;;;0.87;;
22963;SDS011;11648;49.306;6.934;2022-07-10T00:11:43;2.00;;;0.90;;
22963;SDS011;11648;49.306;6.934;2022-07-10T00:14:10;1.87;;;0.90;;
22963;SDS011;11648;49.306;6.934;2022-07-10T00:16:37;4.07;;;1.10;;
22963;SDS011;11648;49.306;6.934;2022-07-10T00:19:03;2.97;;;0.80;;
22963;SDS011;11648;49.306;6.934;2022-07-10T00:21:30;2.50;;;1.00;;
22963;SDS011;11648;49.306;6.934;2022-07-10T00:23:57;2.27;;;1.00;;
22963;SDS011;11648;49.306;6.934;2022-07-10T00:26:23;2.80;;;1.00;;
22963;SDS011;11648;49.306;6.934;2022-07-10T00:28:50;2.17;;;1.03;;
22963;SDS011;11648;49.306;6.934;2022-07-10T00:31:17;2.23;;;0.87;;
22963;SDS011;11648;49.306;6.934;2022-07-10T00:33:43;1.93;;;0.80;;
22963;SDS011;11648;49.306;6.934;2022-07-10T00:36:10;1.50;;;0.90;;
22963;SDS011;11648;49.306;6.934;2022-07-10T00:38:37;3.30;;;1.10;;
22963;SDS011;11648;49.306;6.934;2022-07-10T00:41:04;3.00;;;0.90;;
22963;SDS011;11648;49.306;6.934;2022-07-10T00:43:50;2.80;;;1.20;;
22963;SDS011;11648;49.306;6.934;2022-07-10T00:46:21;2.73;;;1.10;;
22963;SDS011;11648;49.306;6.934;2022-07-10T00:48:48;3.53;;;1.00;;
22963;SDS011;11648;49.306;6.934;2022-07-10T00:51:16;2.47;;;1.00;;
22963;SDS011;11648;49.306;6.934;2022-07-10T00:53:45;4.30;;;1.10;;
22963;SDS011;11648;49.306;6.934;2022-07-10T00:56:14;3.13;;;1.03;;
22963;SDS011;11648;49.306;6.934;2022-07-10T00:58:42;5.83;;;1.20;;
22963;SDS011;11648;49.306;6.934;2022-07-10T01:01:11;2.50;;;1.10;;
22963;SDS011;11648;49.306;6.934;2022-07-10T01:03:38;2.53;;;1.30;;
22963;SDS011;11648;49.306;6.934;2022-07-10T01:06:06;3.40;;;1.10;;
22963;SDS011;11648;49.306;6.934;2022-07-10T01:08:33;3.67;;;1.00;;
22963;SDS011;11648;49.306;6.934;2022-07-10T01:11:00;3.73;;;1.20;;
22963;SDS011;11648;49.306;6.934;2022-07-10T01:13:28;2.53;;;1.03;;
22963;SDS011;11648;49.306;6.934;2022-07-10T01:15:56;4.27;;;1.33;;
22963;SDS011;11648;49.306;6.934;2022-07-10T01:18:24;4.20;;;1.30;;
22963;SDS011;11648;49.306;6.934;2022-07-10T01:20:52;1.97;;;1.00;;
22963;SDS011;11648;49.306;6.934;2022-07-10T01:23:20;5.43;;;1.30;;
22963;SDS011;11648;49.306;6.934;2022-07-10T01:25:48;2.00;;;0.93;;
22963;SDS011;11648;49.306;6.934;2022-07-10T01:28:16;3.27;;;1.37;;
22963;SDS011;11648;49.306;6.934;2022-07-10T01:30:43;3.83;;;1.40;;
22963;SDS011;11648;49.306;6.934;2022-07-10T01:33:10;4.43;;;1.40;;
22963;SDS011;11648;49.306;6.934;2022-07-10T01:35:37;3.30;;;1.20;;
22963;SDS011;11648;49.306;6.934;2022-07-10T01:38:05;6.10;;;1.47;;
22963;SDS011;11648;49.306;6.934;2022-07-10T01:40:33;2.77;;;1.13;;
22963;SDS011;11648;49.306;6.934;2022-07-10T01:42:59;3.20;;;1.30;;
22963;SDS011;11648;49.306;6.934;2022-07-10T01:45:26;2.53;;;1.10;;
22963;SDS011;11648;49.306;6.934;2022-07-10T01:47:53;3.93;;;1.30;;
22963;SDS011;11648;49.306;6.934;2022-07-10T01:50:20;6.50;;;1.30;;
22963;SDS011;11648;49.306;6.934;2022-07-10T01:52:46;3.40;;;1.30;;
22963;SDS011;11648;49.306;6.934;2022-07-10T01:55:13;3.87;;;1.30;;
22963;SDS011;11648;49.306;6.934;2022-07-10T01:57:41;3.67;;;1.20;;
22963;SDS011;11648;49.306;6.934;2022-07-10T02:00:07;3.77;;;1.17;;
22963;SDS011;11648;49.306;6.934;2022-07-10T02:02:38;3.33;;;1.50;;
22963;SDS011;11648;49.306;6.934;2022-07-10T02:05:05;3.07;;;1.27;;
22963;SDS011;11648;49.306;6.934;2022-07-10T02:07:32;3.40;;;1.33;;
22963;SDS011;11648;49.306;6.934;2022-07-10T02:09:59;4.10;;;1.40;;
22963;SDS011;11648;49.306;6.934;2022-07-10T02:12:25;5.70;;;1.90;;
22963;SDS011;11648;49.306;6.934;2022-07-10T02:14:52;2.47;;;1.30;;
22963;SDS011;11648;49.306;6.934;2022-07-10T02:17:19;4.53;;;1.50;;
22963;SDS011;11648;49.306;6.934;2022-07-10T02:19:45;3.47;;;1.20;;
22963;SDS011;11648;49.306;6.934;2022-07-10T02:22:12;5.50;;;1.60;;
22963;SDS011;11648;49.306;6.934;2022-07-10T02:24:39;4.50;;;1.70;;
22963;SDS011;11648;49.306;6.934;2022-07-10T02:27:05;3.83;;;1.70;;
22963;SDS011;11648;49.306;6.934;2022-07-10T02:29:32;4.43;;;1.43;;
22963;SDS011;11648;49.306;6.934;2022-07-10T02:31:59;4.00;;;1.40;;
22963;SDS011;11648;49.306;6.934;2022-07-10T02:34:26;3.63;;;1.57;;
22963;SDS011;11648;49.306;6.934;2022-07-10T02:36:52;2.80;;;1.43;;
22963;SDS011;11648;49.306;6.934;2022-07-10T02:39:19;3.90;;;1.30;;
22963;SDS011;11648;49.306;6.934;2022-07-10T02:41:46;2.93;;;1.43;;
22963;SDS011;11648;49.306;6.934;2022-07-10T02:44:12;3.93;;;1.33;;
22963;SDS011;11648;49.306;6.934;2022-07-10T02:46:42;6.03;;;1.80;;
22963;SDS011;11648;49.306;6.934;2022-07-10T02:49:09;3.93;;;1.70;;
22963;SDS011;11648;49.306;6.934;2022-07-10T02:51:35;3.90;;;1.50;;
22963;SDS011;11648;49.306;6.934;2022-07-10T02:54:02;3.90;;;1.60;;
22963;SDS011;11648;49.306;6.934;2022-07-10T02:56:29;4.45;;;1.90;;
22963;SDS011;11648;49.306;6.934;2022-07-10T02:58:55;3.37;;;1.83;;
22963;SDS011;11648;49.306;6.934;2022-07-10T03:01:22;2.97;;;1.60;;
22963;SDS011;11648;49.306;6.934;2022-07-10T03:03:49;5.90;;;2.03;;
22963;SDS011;11648;49.306;6.934;2022-07-10T03:06:16;2.90;;;1.60;;
22963;SDS011;11648;49.306;6.934;2022-07-10T03:08:42;5.40;;;2.10;;
22963;SDS011;11648;49.306;6.934;2022-07-10T03:11:09;4.10;;;2.07;;
22963;SDS011;11648;49.306;6.934;2022-07-10T03:13:36;3.63;;;1.80;;
22963;SDS011;11648;49.306;6.934;2022-07-10T03:16:02;3.80;;;1.90;;
22963;SDS011;11648;49.306;6.934;2022-07-10T03:18:29;4.53;;;1.77;;
22963;SDS011;11648;49.306;6.934;2022-07-10T03:20:56;4.57;;;1.93;;
22963;SDS011;11648;49.306;6.934;2022-07-10T03:23:23;3.40;;;1.63;;
22963;SDS011;11648;49.306;6.934;2022-07-10T03:25:50;3.87;;;2.10;;
22963;SDS011;11648;49.306;6.934;2022-07-10T03:28:20;4.27;;;2.10;;
22963;SDS011;11648;49.306;6.934;2022-07-10T03:30:47;3.90;;;1.77;;
22963;SDS011;11648;49.306;6.934;2022-07-10T03:33:14;4.83;;;2.20;;
22963;SDS011;11648;49.306;6.934;2022-07-10T03:35:41;5.37;;;2.10;;
22963;SDS011;11648;49.306;6.934;2022-07-10T03:38:08;4.93;;;2.27;;
22963;SDS011;11648;49.306;6.934;2022-07-10T03:40:35;4.37;;;1.93;;
22963;SDS011;11648;49.306;6.934;2022-07-10T03:43:01;3.30;;;1.90;;
22963;SDS011;11648;49.306;6.934;2022-07-10T03:45:28;3.60;;;1.90;;
22963;SDS011;11648;49.306;6.934;2022-07-10T03:47:55;4.77;;;2.00;;
22963;SDS011;11648;49.306;6.934;2022-07-10T03:50:21;5.00;;;2.03;;
22963;SDS011;11648;49.306;6.934;2022-07-10T03:52:48;6.10;;;2.27;;
22963;SDS011;11648;49.306;6.934;2022-07-10T03:55:15;2.33;;;1.67;;
22963;SDS011;11648;49.306;6.934;2022-07-10T03:57:41;4.60;;;2.20;;
22963;SDS011;11648;49.306;6.934;2022-07-10T04:00:24;4.83;;;2.20;;
22963;SDS011;11648;49.306;6.934;2022-07-10T04:03:01;4.13;;;2.20;;
22963;SDS011;11648;49.306;6.934;2022-07-10T04:05:29;5.50;;;2.13;;
22963;SDS011;11648;49.306;6.934;2022-07-10T04:07:57;4.27;;;2.10;;
22963;SDS011;11648;49.306;6.934;2022-07-10T04:10:25;5.63;;;2.63;;
22963;SDS011;11648;49.306;6.934;2022-07-10T04:12:52;4.27;;;2.07;;
22963;SDS011;11648;49.306;6.934;2022-07-10T04:15:19;4.43;;;2.00;;
22963;SDS011;11648;49.306;6.934;2022-07-10T04:17:50;4.80;;;2.20;;
22963;SDS011;11648;49.306;6.934;2022-07-10T04:20:17;6.53;;;2.20;;
22963;SDS011;11648;49.306;6.934;2022-07-10T04:22:45;5.27;;;2.20;;
22963;SDS011;11648;49.306;6.934;2022-07-10T04:25:12;4.60;;;2.30;;
22963;SDS011;11648;49.306;6.934;2022-07-10T04:27:39;5.13;;;2.40;;
22963;SDS011;11648;49.306;6.934;2022-07-10T04:30:06;4.47;;;2.33;;
22963;SDS011;11648;49.306;6.934;2022-07-10T04:32:33;5.67;;;2.60;;
22963;SDS011;11648;49.306;6.934;2022-07-10T04:35:00;5.17;;;2.37;;
22963;SDS011;11648;49.306;6.934;2022-07-10T04:37:29;5.10;;;2.50;;
22963;SDS011;11648;49.306;6.934;2022-07-10T04:39:56;5.70;;;2.70;;
22963;SDS011;11648;49.306;6.934;2022-07-10T04:42:24;6.00;;;2.40;;
22963;SDS011;11648;49.306;6.934;2022-07-10T04:44:52;5.10;;;2.43;;
22963;SDS011;11648;49.306;6.934;2022-07-10T04:47:18;6.43;;;2.77;;
22963;SDS011;11648;49.306;6.934;2022-07-10T04:49:45;5.80;;;2.77;;
22963;SDS011;11648;49.306;6.934;2022-07-10T04:52:12;4.57;;;2.20;;
22963;SDS011;11648;49.306;6.934;2022-07-10T04:54:38;4.53;;;2.37;;
22963;SDS011;11648;49.306;6.934;2022-07-10T04:57:05;5.27;;;2.50;;
22963;SDS011;11648;49.306;6.934;2022-07-10T04:59:32;5.30;;;2.60;;
22963;SDS011;11648;49.306;6.934;2022-07-10T05:01:58;6.33;;;3.03;;
22963;SDS011;11648;49.306;6.934;2022-07-10T05:04:25;3.90;;;2.70;;
22963;SDS011;11648;49.306;6.934;2022-07-10T05:06:52;6.83;;;3.03;;
22963;SDS011;11648;49.306;6.934;2022-07-10T05:09:19;4.63;;;2.90;;
22963;SDS011;11648;49.306;6.934;2022-07-10T05:11:46;4.43;;;3.27;;
22963;SDS011;11648;49.306;6.934;2022-07-10T05:14:13;5.37;;;3.13;;
22963;SDS011;11648;49.306;6.934;2022-07-10T05:16:40;6.47;;;3.10;;
22963;SDS011;11648;49.306;6.934;2022-07-10T05:19:07;5.40;;;3.37;;
22963;SDS011;11648;49.306;6.934;2022-07-10T05:21:34;6.20;;;3.13;;
22963;SDS011;11648;49.306;6.934;2022-07-10T05:24:00;4.90;;;3.20;;
22963;SDS011;11648;49.306;6.934;2022-07-10T05:26:27;6.43;;;3.00;;
22963;SDS011;11648;49.306;6.934;2022-07-10T05:28:54;4.50;;;2.50;;
22963;SDS011;11648;49.306;6.934;2022-07-10T05:31:21;5.23;;;2.30;;
22963;SDS011;11648;49.306;6.934;2022-07-10T05:33:48;3.73;;;1.60;;
22963;SDS011;11648;49.306;6.934;2022-07-10T05:36:14;4.07;;;1.50;;
22963;SDS011;11648;49.306;6.934;2022-07-10T05:38:41;3.50;;;1.40;;
22963;SDS011;11648;49.306;6.934;2022-07-10T05:41:08;4.57;;;1.60;;
22963;SDS011;11648;49.306;6.934;2022-07-10T05:43:35;4.70;;;1.60;;
22963;SDS011;11648;49.306;6.934;2022-07-10T05:46:01;3.37;;;1.20;;
22963;SDS011;11648;49.306;6.934;2022-07-10T05:48:28;3.27;;;1.17;;
22963;SDS011;11648;49.306;6.934;2022-07-10T05:50:55;5.63;;;1.20;;
22963;SDS011;11648;49.306;6.934;2022-07-10T05:53:41;3.83;;;1.10;;
22963;SDS011;11648;49.306;6.934;2022-07-10T05:56:07;3.53;;;1.00;;
22963;SDS011;11648;49.306;6.934;2022-07-10T05:58:34;2.97;;;0.90;;
22963;SDS011;11648;49.306;6.934;2022-07-10T06:01:01;3.83;;;0.90;;
22963;SDS011;11648;49.306;6.934;2022-07-10T06:03:28;3.17;;;0.70;;
22963;SDS011;11648;49.306;6.934;2022-07-10T06:05:55;4.80;;;1.07;;
22963;SDS011;11648;49.306;6.934;2022-07-10T06:08:22;5.53;;;1.20;;
22963;SDS011;11648;49.306;6.934;2022-07-10T06:10:48;2.67;;;0.87;;
22963;SDS011;11648;49.306;6.934;2022-07-10T06:13:15;2.07;;;0.70;;
22963;SDS011;11648;49.306;6.934;2022-07-10T06:15:42;2.73;;;0.60;;
22963;SDS011;11648;49.306;6.934;2022-07-10T06:18:09;3.00;;;0.90;;
22963;SDS011;11648;49.306;6.934;2022-07-10T06:20:36;2.00;;;0.60;;
22963;SDS011;11648;49.306;6.934;2022-07-10T06:23:02;6.03;;;0.90;;
22963;SDS011;11648;49.306;6.934;2022-07-10T06:25:29;1.83;;;0.70;;
22963;SDS011;11648;49.306;6.934;2022-07-10T06:27:56;2.87;;;0.80;;
22963;SDS011;11648;49.306;6.934;2022-07-10T06:30:22;2.90;;;0.50;;
22963;SDS011;11648;49.306;6.934;2022-07-10T06:32:49;3.60;;;0.77;;
22963;SDS011;11648;49.306;6.934;2022-07-10T06:35:16;2.93;;;0.80;;
22963;SDS011;11648;49.306;6.934;2022-07-10T06:37:42;3.70;;;0.60;;
22963;SDS011;11648;49.306;6.934;2022-07-10T06:40:11;2.27;;;0.60;;
22963;SDS011;11648;49.306;6.934;2022-07-10T06:42:40;2.10;;;0.50;;
22963;SDS011;11648;49.306;6.934;2022-07-10T06:45:10;2.93;;;0.70;;
22963;SDS011;11648;49.306;6.934;2022-07-10T06:47:37;2.47;;;0.73;;
22963;SDS011;11648;49.306;6.934;2022-07-10T06:50:24;2.33;;;0.60;;
22963;SDS011;11648;49.306;6.934;2022-07-10T06:52:52;2.73;;;0.67;;
22963;SDS011;11648;49.306;6.934;2022-07-10T06:55:19;2.30;;;0.60;;
22963;SDS011;11648;49.306;6.934;2022-07-10T06:57:46;3.10;;;0.60;;
22963;SDS011;11648;49.306;6.934;2022-07-10T07:00:13;4.07;;;0.80;;
22963;SDS011;11648;49.306;6.934;2022-07-10T07:02:42;2.90;;;1.00;;
22963;SDS011;11648;49.306;6.934;2022-07-10T07:05:09;2.33;;;0.57;;
22963;SDS011;11648;49.306;6.934;2022-07-10T07:07:36;3.60;;;0.60;;
22963;SDS011;11648;49.306;6.934;2022-07-10T07:10:03;2.97;;;0.50;;
22963;SDS011;11648;49.306;6.934;2022-07-10T07:12:31;2.37;;;0.77;;
22963;SDS011;11648;49.306;6.934;2022-07-10T07:14:58;1.77;;;0.50;;
22963;SDS011;11648;49.306;6.934;2022-07-10T07:17:25;3.30;;;0.70;;
22963;SDS011;11648;49.306;6.934;2022-07-10T07:20:00;3.20;;;0.80;;
22963;SDS011;11648;49.306;6.934;2022-07-10T07:22:46;1.90;;;0.60;;
22963;SDS011;11648;49.306;6.934;2022-07-10T07:25:32;3.17;;;0.50;;
22963;SDS011;11648;49.306;6.934;2022-07-10T07:27:58;1.77;;;0.50;;
22963;SDS011;11648;49.306;6.934;2022-07-10T07:30:25;1.77;;;0.50;;
22963;SDS011;11648;49.306;6.934;2022-07-10T07:32:52;2.73;;;0.60;;
22963;SDS011;11648;49.306;6.934;2022-07-10T07:35:19;3.20;;;0.77;;
22963;SDS011;11648;49.306;6.934;2022-07-10T07:37:46;3.60;;;0.53;;
22963;SDS011;11648;49.306;6.934;2022-07-10T07:40:15;2.93;;;0.53;;
22963;SDS011;11648;49.306;6.934;2022-07-10T07:42:46;2.17;;;0.60;;
22963;SDS011;11648;49.306;6.934;2022-07-10T07:45:13;4.30;;;0.60;;
22963;SDS011;11648;49.306;6.934;2022-07-10T07:47:44;3.03;;;0.60;;
22963;SDS011;11648;49.306;6.934;2022-07-10T07:50:19;2.57;;;0.50;;
22963;SDS011;11648;49.306;6.934;2022-07-10T07:52:48;2.17;;;0.40;;
22963;SDS011;11648;49.306;6.934;2022-07-10T07:55:15;3.17;;;0.67;;
22963;SDS011;11648;49.306;6.934;2022-07-10T07:57:45;3.07;;;0.70;;
22963;SDS011;11648;49.306;6.934;2022-07-10T08:00:13;2.77;;;0.50;;
22963;SDS011;11648;49.306;6.934;2022-07-10T08:02:40;2.23;;;0.53;;
22963;SDS011;11648;49.306;6.934;2022-07-10T08:05:08;4.33;;;0.60;;
22963;SDS011;11648;49.306;6.934;2022-07-10T08:07:43;3.53;;;0.40;;
22963;SDS011;11648;49.306;6.934;2022-07-10T08:10:12;3.40;;;0.70;;
22963;SDS011;11648;49.306;6.934;2022-07-10T08:12:42;1.60;;;0.40;;
22963;SDS011;11648;49.306;6.934;2022-07-10T08:15:10;2.40;;;0.40;;
22963;SDS011;11648;49.306;6.934;2022-07-10T08:17:37;3.93;;;0.70;;
22963;SDS011;11648;49.306;6.934;2022-07-10T08:20:05;2.13;;;0.70;;
22963;SDS011;11648;49.306;6.934;2022-07-10T08:22:34;1.80;;;0.40;;
22963;SDS011;11648;49.306;6.934;2022-07-10T08:25:00;2.03;;;0.50;;
22963;SDS011;11648;49.306;6.934;2022-07-10T08:27:27;2.13;;;0.30;;
22963;SDS011;11648;49.306;6.934;2022-07-10T08:29:54;2.63;;;0.40;;
22963;SDS011;11648;49.306;6.934;2022-07-10T08:32:21;2.70;;;0.60;;
22963;SDS011;11648;49.306;6.934;2022-07-10T08:34:48;1.97;;;0.53;;
22963;SDS011;11648;49.306;6.934;2022-07-10T08:37:15;1.63;;;0.50;;
22963;SDS011;11648;49.306;6.934;2022-07-10T08:39:42;1.67;;;0.50;;
22963;SDS011;11648;49.306;6.934;2022-07-10T08:42:10;2.03;;;0.40;;
22963;SDS011;11648;49.306;6.934;2022-07-10T08:44:37;2.30;;;0.50;;
22963;SDS011;11648;49.306;6.934;2022-07-10T08:47:04;1.70;;;0.50;;
22963;SDS011;11648;49.306;6.934;2022-07-10T08:49:31;2.47;;;0.60;;
22963;SDS011;11648;49.306;6.934;2022-07-10T08:52:05;2.87;;;0.50;;
22963;SDS011;11648;49.306;6.934;2022-07-10T08:54:34;1.90;;;0.50;;
22963;SDS011;11648;49.306;6.934;2022-07-10T08:57:02;2.23;;;0.50;;
22963;SDS011;11648;49.306;6.934;2022-07-10T08:59:30;1.20;;;0.50;;
22963;SDS011;11648;49.306;6.934;2022-07-10T09:01:57;1.23;;;0.40;;
22963;SDS011;11648;49.306;6.934;2022-07-10T09:04:25;3.37;;;0.50;;
22963;SDS011;11648;49.306;6.934;2022-07-10T09:06:53;2.10;;;0.50;;
22963;SDS011;11648;49.306;6.934;2022-07-10T09:09:21;2.73;;;0.63;;
22963;SDS011;11648;49.306;6.934;2022-07-10T09:11:55;2.10;;;0.47;;
22963;SDS011;11648;49.306;6.934;2022-07-10T09:14:25;2.20;;;0.53;;
22963;SDS011;11648;49.306;6.934;2022-07-10T09:17:01;1.92;;;0.50;;
22963;SDS011;11648;49.306;6.934;2022-07-10T09:19:28;3.40;;;0.80;;
22963;SDS011;11648;49.306;6.934;2022-07-10T09:22:03;2.87;;;0.57;;
22963;SDS011;11648;49.306;6.934;2022-07-10T09:24:35;3.33;;;0.60;;
22963;SDS011;11648;49.306;6.934;2022-07-10T09:27:07;3.67;;;0.63;;
22963;SDS011;11648;49.306;6.934;2022-07-10T09:29:45;2.00;;;0.63;;
22963;SDS011;11648;49.306;6.934;2022-07-10T09:32:21;4.50;;;0.77;;
22963;SDS011;11648;49.306;6.934;2022-07-10T09:34:48;1.77;;;0.60;;
22963;SDS011;11648;49.306;6.934;2022-07-10T09:40:03;3.80;;;0.73;;
22963;SDS011;11648;49.306;6.934;2022-07-10T09:42:32;2.73;;;0.70;;
22963;SDS011;11648;49.306;6.934;2022-07-10T09:47:36;3.25;;;0.80;;
22963;SDS011;11648;49.306;6.934;2022-07-10T09:50:23;2.88;;;0.63;;
22963;SDS011;11648;49.306;6.934;2022-07-10T09:52:59;2.80;;;0.60;;
22963;SDS011;11648;49.306;6.934;2022-07-10T09:55:28;2.85;;;0.80;;
22963;SDS011;11648;49.306;6.934;2022-07-10T10:00:28;3.95;;;0.80;;
22963;SDS011;11648;49.306;6.934;2022-07-10T10:03:06;3.67;;;0.70;;
22963;SDS011;11648;49.306;6.934;2022-07-10T10:05:39;2.90;;;0.50;;
22963;SDS011;11648;49.306;6.934;2022-07-10T10:08:24;2.60;;;0.70;;
22963;SDS011;11648;49.306;6.934;2022-07-10T10:10:52;1.58;;;0.43;;
22963;SDS011;11648;49.306;6.934;2022-07-10T10:13:25;2.55;;;0.65;;
22963;SDS011;11648;49.306;6.934;2022-07-10T10:15:56;3.10;;;0.75;;
22963;SDS011;11648;49.306;6.934;2022-07-10T10:18:24;2.97;;;0.70;;
22963;SDS011;11648;49.306;6.934;2022-07-10T10:20:53;3.10;;;0.73;;
22963;SDS011;11648;49.306;6.934;2022-07-10T10:23:24;2.45;;;0.65;;
22963;SDS011;11648;49.306;6.934;2022-07-10T10:25:52;2.45;;;0.80;;
22963;SDS011;11648;49.306;6.934;2022-07-10T10:28:23;4.90;;;0.90;;
22963;SDS011;11648;49.306;6.934;2022-07-10T10:30:53;2.20;;;0.60;;
22963;SDS011;11648;49.306;6.934;2022-07-10T10:36:10;4.43;;;0.80;;
22963;SDS011;11648;49.306;6.934;2022-07-10T10:41:25;2.55;;;0.80;;
22963;SDS011;11648;49.306;6.934;2022-07-10T10:52:24;3.15;;;0.90;;
22963;SDS011;11648;49.306;6.934;2022-07-10T11:00:06;2.30;;;0.70;;
22963;SDS011;11648;49.306;6.934;2022-07-10T11:13:14;2.35;;;0.88;;
22963;SDS011;11648;49.306;6.934;2022-07-10T11:15:43;3.30;;;0.90;;
22963;SDS011;11648;49.306;6.934;2022-07-10T11:18:18;2.97;;;0.80;;
22963;SDS011;11648;49.306;6.934;2022-07-10T11:20:48;3.05;;;0.80;;
22963;SDS011;11648;49.306;6.934;2022-07-10T11:26:24;3.58;;;0.82;;
22963;SDS011;11648;49.306;6.934;2022-07-10T11:28:59;2.47;;;0.70;;
22963;SDS011;11648;49.306;6.934;2022-07-10T11:31:29;3.90;;;0.98;;
22963;SDS011;11648;49.306;6.934;2022-07-10T11:33:57;3.08;;;0.68;;
22963;SDS011;11648;49.306;6.934;2022-07-10T11:36:24;2.25;;;0.80;;
22963;SDS011;11648;49.306;6.934;2022-07-10T11:38:56;1.90;;;0.70;;
22963;SDS011;11648;49.306;6.934;2022-07-10T11:41:25;3.97;;;1.08;;
22963;SDS011;11648;49.306;6.934;2022-07-10T11:44:13;3.17;;;0.95;;
22963;SDS011;11648;49.306;6.934;2022-07-10T11:46:44;3.67;;;1.15;;
22963;SDS011;11648;49.306;6.934;2022-07-10T11:49:12;4.03;;;0.90;;
22963;SDS011;11648;49.306;6.934;2022-07-10T11:51:41;4.35;;;1.35;;
22963;SDS011;11648;49.306;6.934;2022-07-10T11:54:09;2.17;;;0.80;;
22963;SDS011;11648;49.306;6.934;2022-07-10T11:56:39;3.22;;;0.75;;
22963;SDS011;11648;49.306;6.934;2022-07-10T12:01:42;3.40;;;0.70;;
22963;SDS011;11648;49.306;6.934;2022-07-10T12:04:13;2.38;;;0.85;;
22963;SDS011;11648;49.306;6.934;2022-07-10T12:06:42;2.55;;;0.80;;
22963;SDS011;11648;49.306;6.934;2022-07-10T12:09:13;3.28;;;0.70;;
22963;SDS011;11648;49.306;6.934;2022-07-10T12:11:41;2.35;;;0.70;;
22963;SDS011;11648;49.306;6.934;2022-07-10T12:14:15;3.35;;;0.90;;
22963;SDS011;11648;49.306;6.934;2022-07-10T12:16:46;2.53;;;0.70;;
22963;SDS011;11648;49.306;6.934;2022-07-10T12:19:17;6.13;;;0.88;;
22963;SDS011;11648;49.306;6.934;2022-07-10T12:21:46;2.50;;;0.80;;
22963;SDS011;11648;49.306;6.934;2022-07-10T12:24:17;3.35;;;0.88;;
22963;SDS011;11648;49.306;6.934;2022-07-10T12:26:46;3.65;;;0.98;;
22963;SDS011;11648;49.306;6.934;2022-07-10T12:29:26;3.15;;;0.88;;
22963;SDS011;11648;49.306;6.934;2022-07-10T12:31:55;2.40;;;0.77;;
22963;SDS011;11648;49.306;6.934;2022-07-10T12:34:37;2.72;;;0.80;;
22963;SDS011;11648;49.306;6.934;2022-07-10T12:37:10;4.10;;;1.00;;
22963;SDS011;11648;49.306;6.934;2022-07-10T12:39:39;2.55;;;0.70;;
22963;SDS011;11648;49.306;6.934;2022-07-10T12:42:12;3.58;;;0.95;;
22963;SDS011;11648;49.306;6.934;2022-07-10T12:44:41;2.20;;;0.73;;
22963;SDS011;11648;49.306;6.934;2022-07-10T12:47:10;1.75;;;0.60;;
22963;SDS011;11648;49.306;6.934;2022-07-10T12:52:35;3.90;;;0.80;;
22963;SDS011;11648;49.306;6.934;2022-07-10T13:00:26;2.03;;;0.70;;
22963;SDS011;11648;49.306;6.934;2022-07-10T13:08:05;3.53;;;0.85;;
22963;SDS011;11648;49.306;6.934;2022-07-10T13:10:33;3.72;;;0.73;;
22963;SDS011;11648;49.306;6.934;2022-07-10T13:13:03;3.25;;;0.90;;
22963;SDS011;11648;49.306;6.934;2022-07-10T13:15:30;3.63;;;1.00;;
22963;SDS011;11648;49.306;6.934;2022-07-10T13:17:57;3.03;;;0.90;;
22963;SDS011;11648;49.306;6.934;2022-07-10T13:20:24;2.83;;;0.80;;
22963;SDS011;11648;49.306;6.934;2022-07-10T13:22:51;4.35;;;0.93;;
22963;SDS011;11648;49.306;6.934;2022-07-10T13:25:18;3.00;;;0.90;;
22963;SDS011;11648;49.306;6.934;2022-07-10T13:27:45;2.97;;;0.90;;
22963;SDS011;11648;49.306;6.934;2022-07-10T13:30:12;3.35;;;0.90;;
22963;SDS011;11648;49.306;6.934;2022-07-10T13:32:39;2.65;;;0.80;;
22963;SDS011;11648;49.306;6.934;2022-07-10T13:35:06;3.67;;;0.90;;
22963;SDS011;11648;49.306;6.934;2022-07-10T13:37:33;2.58;;;0.75;;
22963;SDS011;11648;49.306;6.934;2022-07-10T13:40:00;2.28;;;0.77;;
22963;SDS011;11648;49.306;6.934;2022-07-10T13:42:27;2.75;;;0.70;;
22963;SDS011;11648;49.306;6.934;2022-07-10T13:44:53;2.53;;;0.80;;
22963;SDS011;11648;49.306;6.934;2022-07-10T13:47:21;4.15;;;1.00;;
22963;SDS011;11648;49.306;6.934;2022-07-10T13:49:48;2.05;;;0.82;;
22963;SDS011;11648;49.306;6.934;2022-07-10T13:52:15;1.70;;;0.60;;
22963;SDS011;11648;49.306;6.934;2022-07-10T13:54:41;3.05;;;0.80;;
22963;SDS011;11648;49.306;6.934;2022-07-10T13:57:08;3.78;;;0.70;;
22963;SDS011;11648;49.306;6.934;2022-07-10T13:59:35;2.50;;;0.80;;
22963;SDS011;11648;49.306;6.934;2022-07-10T14:02:01;3.28;;;0.75;;
22963;SDS011;11648;49.306;6.934;2022-07-10T14:04:28;4.22;;;0.95;;
22963;SDS011;11648;49.306;6.934;2022-07-10T14:06:55;2.85;;;0.75;;
22963;SDS011;11648;49.306;6.934;2022-07-10T14:09:22;3.58;;;0.88;;
22963;SDS011;11648;49.306;6.934;2022-07-10T14:11:50;2.38;;;0.80;;
22963;SDS011;11648;49.306;6.934;2022-07-10T14:14:17;2.83;;;0.93;;
22963;SDS011;11648;49.306;6.934;2022-07-10T14:16:43;4.38;;;1.10;;
22963;SDS011;11648;49.306;6.934;2022-07-10T14:19:10;4.72;;;0.65;;
22963;SDS011;11648;49.306;6.934;2022-07-10T14:21:39;5.95;;;0.88;;
22963;SDS011;11648;49.306;6.934;2022-07-10T14:24:06;2.72;;;0.90;;
22963;SDS011;11648;49.306;6.934;2022-07-10T14:26:33;2.25;;;0.95;;
22963;SDS011;11648;49.306;6.934;2022-07-10T14:29:04;1.95;;;0.77;;
22963;SDS011;11648;49.306;6.934;2022-07-10T14:31:31;2.92;;;1.10;;
22963;SDS011;11648;49.306;6.934;2022-07-10T14:33:59;2.55;;;0.93;;
22963;SDS011;11648;49.306;6.934;2022-07-10T14:36:25;2.75;;;1.08;;
22963;SDS011;11648;49.306;6.934;2022-07-10T14:38:55;1.98;;;0.60;;
22963;SDS011;11648;49.306;6.934;2022-07-10T14:41:23;2.90;;;0.80;;
22963;SDS011;11648;49.306;6.934;2022-07-10T14:43:51;1.70;;;0.70;;
22963;SDS011;11648;49.306;6.934;2022-07-10T14:46:17;4.13;;;1.60;;
22963;SDS011;11648;49.306;6.934;2022-07-10T14:48:44;2.33;;;0.77;;
22963;SDS011;11648;49.306;6.934;2022-07-10T14:51:11;3.33;;;1.60;;
22963;SDS011;11648;49.306;6.934;2022-07-10T14:53:38;2.92;;;1.30;;
22963;SDS011;11648;49.306;6.934;2022-07-10T14:56:07;3.03;;;1.00;;
22963;SDS011;11648;49.306;6.934;2022-07-10T14:58:34;2.37;;;1.00;;
22963;SDS011;11648;49.306;6.934;2022-07-10T15:01:21;2.47;;;0.90;;
22963;SDS011;11648;49.306;6.934;2022-07-10T15:03:47;2.10;;;0.80;;
22963;SDS011;11648;49.306;6.934;2022-07-10T15:06:14;2.50;;;1.10;;
22963;SDS011;11648;49.306;6.934;2022-07-10T15:08:41;2.10;;;0.90;;
22963;SDS011;11648;49.306;6.934;2022-07-10T15:11:07;1.27;;;0.80;;
22963;SDS011;11648;49.306;6.934;2022-07-10T15:13:34;1.40;;;0.83;;
22963;SDS011;11648;49.306;6.934;2022-07-10T15:16:01;0.90;;;0.60;;
22963;SDS011;11648;49.306;6.934;2022-07-10T15:18:28;3.17;;;0.87;;
22963;SDS011;11648;49.306;6.934;2022-07-10T15:20:54;1.40;;;0.73;;
22963;SDS011;11648;49.306;6.934;2022-07-10T15:23:21;2.47;;;0.70;;
22963;SDS011;11648;49.306;6.934;2022-07-10T15:25:48;1.40;;;0.50;;
22963;SDS011;11648;49.306;6.934;2022-07-10T15:28:14;1.83;;;0.83;;
22963;SDS011;11648;49.306;6.934;2022-07-10T15:30:41;3.17;;;0.87;;
22963;SDS011;11648;49.306;6.934;2022-07-10T15:33:09;2.20;;;0.80;;
22963;SDS011;11648;49.306;6.934;2022-07-10T15:35:36;1.47;;;0.63;;
22963;SDS011;11648;49.306;6.934;2022-07-10T15:38:03;0.90;;;0.60;;
22963;SDS011;11648;49.306;6.934;2022-07-10T15:40:30;2.70;;;0.60;;
22963;SDS011;11648;49.306;6.934;2022-07-10T15:42:57;1.63;;;0.60;;
22963;SDS011;11648;49.306;6.934;2022-07-10T15:45:24;0.90;;;0.70;;
22963;SDS011;11648;49.306;6.934;2022-07-10T15:47:52;1.40;;;0.60;;
22963;SDS011;11648;49.306;6.934;2022-07-10T15:50:20;1.97;;;0.67;;
22963;SDS011;11648;49.306;6.934;2022-07-10T15:52:47;3.03;;;0.90;;